createdAt,value
2023-01-13T00:00:09.339Z,93.31
2023-01-13T00:02:35.872Z,93.26
2023-01-13T00:05:02.405Z,93.19
2023-01-13T00:07:28.910Z,93.16
2023-01-13T00:09:55.314Z,92.94
2023-01-13T00:12:21.732Z,93.10
2023-01-13T00:14:48.209Z,92.18
2023-01-13T00:17:14.606Z,92.39
2023-01-13T00:19:41.016Z,92.71
2023-01-13T00:22:07.679Z,92.29
2023-01-13T00:24:34.128Z,91.70
2023-01-13T00:27:00.520Z,91.83
2023-01-13T00:29:27.074Z,91.32
2023-01-13T00:31:53.512Z,91.66
2023-01-13T00:34:19.928Z,91.46
2023-01-13T00:36:46.342Z,91.84
2023-01-13T00:39:12.849Z,91.98
2023-01-13T00:41:57.821Z,92.05
2023-01-13T00:44:24.178Z,92.15
2023-01-13T00:46:50.690Z,92.03
2023-01-13T00:49:17.536Z,92.34
2023-01-13T00:51:43.895Z,92.36
2023-01-13T00:54:10.324Z,92.74
2023-01-13T00:56:41.282Z,92.76
2023-01-13T00:59:11.244Z,92.81
2023-01-13T01:01:37.950Z,93.00
2023-01-13T01:04:04.671Z,93.25
2023-01-13T01:06:31.084Z,93.54
2023-01-13T01:08:57.629Z,93.63
2023-01-13T01:11:29.602Z,93.50
2023-01-13T01:13:58.293Z,93.41
2023-01-13T01:16:28.451Z,92.99
2023-01-13T01:18:55.914Z,93.04
2023-01-13T01:21:24.669Z,92.83
2023-01-13T01:23:51.079Z,93.06
2023-01-13T01:26:19.853Z,92.91
2023-01-13T01:28:46.850Z,92.74
2023-01-13T01:31:16.583Z,93.00
2023-01-13T01:33:43.174Z,93.15
2023-01-13T01:36:12.074Z,93.09
2023-01-13T01:38:38.853Z,92.87
2023-01-13T01:41:05.883Z,93.06
2023-01-13T01:43:59.771Z,93.07
2023-01-13T01:46:28.146Z,92.76
2023-01-13T01:49:22.485Z,92.84
2023-01-13T01:51:57.005Z,92.88
2023-01-13T01:54:33.797Z,92.85
2023-01-13T01:57:00.380Z,92.97
2023-01-13T01:59:29.875Z,92.91
2023-01-13T02:01:56.422Z,92.90
2023-01-13T02:04:27.968Z,92.94
2023-01-13T02:06:56.673Z,93.21
2023-01-13T02:09:25.927Z,92.87
2023-01-13T02:12:11.019Z,92.68
2023-01-13T02:14:38.690Z,92.49
2023-01-13T02:17:23.851Z,92.50
2023-01-13T02:20:02.296Z,92.51
2023-01-13T02:22:53.642Z,92.30
2023-01-13T02:25:38.675Z,91.76
2023-01-13T02:29:06.994Z,91.44
2023-01-13T02:31:44.497Z,91.51
2023-01-13T02:34:29.819Z,90.88
2023-01-13T02:37:28.655Z,90.75
2023-01-13T02:39:59.731Z,90.33
2023-01-13T02:42:52.098Z,90.47
2023-01-13T02:45:28.045Z,90.36
2023-01-13T02:47:57.844Z,90.24
2023-01-13T02:50:37.391Z,90.24
2023-01-13T02:53:17.708Z,90.30
2023-01-13T02:55:48.496Z,89.94
2023-01-13T02:58:18.765Z,90.11
2023-01-13T03:00:46.594Z,90.07
2023-01-13T03:03:13.906Z,89.93
2023-01-13T03:05:42.671Z,88.76
2023-01-13T03:08:39.711Z,88.75
2023-01-13T03:11:09.609Z,88.67
2023-01-13T03:14:00.787Z,88.78
2023-01-13T03:16:47.986Z,88.57
2023-01-13T03:19:30.330Z,88.54
2023-01-13T03:22:22.836Z,88.34
2023-01-13T03:25:03.160Z,88.50
2023-01-13T03:27:46.021Z,88.69
2023-01-13T03:30:29.391Z,88.41
2023-01-13T03:33:02.584Z,88.32
2023-01-13T03:35:33.409Z,88.55
2023-01-13T03:38:06.272Z,88.68
2023-01-13T03:40:36.423Z,88.46
2023-01-13T03:43:28.730Z,88.33
2023-01-13T03:45:59.114Z,88.07
2023-01-13T03:48:27.712Z,88.01
2023-01-13T03:50:58.461Z,87.81
2023-01-13T03:53:33.220Z,87.96
2023-01-13T03:56:11.653Z,87.77
2023-01-13T03:58:42.490Z,88.12
2023-01-13T04:01:17.042Z,88.40
2023-01-13T04:03:49.558Z,87.70
2023-01-13T04:06:42.094Z,88.29
2023-01-13T04:09:17.695Z,88.02
2023-01-13T04:11:49.499Z,88.49
2023-01-13T04:14:19.333Z,88.60
2023-01-13T04:16:45.848Z,88.68
2023-01-13T04:19:12.413Z,88.34
2023-01-13T04:21:38.967Z,88.33
2023-01-13T04:24:05.574Z,87.80
2023-01-13T04:26:31.982Z,87.81
2023-01-13T04:28:58.402Z,87.94
2023-01-13T04:31:24.851Z,88.08
2023-01-13T04:33:51.399Z,88.01
2023-01-13T04:36:19.628Z,87.26
2023-01-13T04:38:46.109Z,86.95
2023-01-13T04:41:12.560Z,86.98
2023-01-13T04:43:38.983Z,86.58
2023-01-13T04:46:05.566Z,86.35
2023-01-13T04:48:32.038Z,86.10
2023-01-13T04:50:58.455Z,86.22
2023-01-13T04:53:24.929Z,86.04
2023-01-13T04:55:52.082Z,85.72
2023-01-13T04:58:18.818Z,85.56
2023-01-13T05:00:45.214Z,84.82
2023-01-13T05:03:11.898Z,85.07
2023-01-13T05:05:38.480Z,85.42
2023-01-13T05:08:05.466Z,85.63
2023-01-13T05:10:32.084Z,85.71
2023-01-13T05:13:17.545Z,85.21
2023-01-13T05:16:04.654Z,84.62
2023-01-13T05:18:32.390Z,85.42
2023-01-13T05:20:58.863Z,85.38
2023-01-13T05:23:43.770Z,85.36
2023-01-13T05:26:10.401Z,85.51
2023-01-13T05:28:36.853Z,85.86
2023-01-13T05:31:03.431Z,85.82
2023-01-13T05:33:30.062Z,86.05
2023-01-13T05:35:56.496Z,86.18
2023-01-13T05:38:22.972Z,86.20
2023-01-13T05:41:08.088Z,86.59
2023-01-13T05:43:34.863Z,86.88
2023-01-13T05:46:07.976Z,87.21
2023-01-13T05:48:37.131Z,87.38
2023-01-13T05:51:05.750Z,87.13
2023-01-13T05:53:32.680Z,87.08
2023-01-13T05:55:59.588Z,87.22
2023-01-13T05:58:28.045Z,87.42
2023-01-13T06:01:00.767Z,87.44
2023-01-13T06:03:27.280Z,87.10
2023-01-13T06:05:58.636Z,87.35
2023-01-13T06:08:25.750Z,87.44
2023-01-13T06:10:52.321Z,87.00
2023-01-13T06:13:18.859Z,86.83
2023-01-13T06:15:45.384Z,86.72
2023-01-13T06:18:11.917Z,86.79
2023-01-13T06:20:38.351Z,87.28
2023-01-13T06:23:08.535Z,86.98
2023-01-13T06:25:44.389Z,86.72
2023-01-13T06:28:10.955Z,86.56
2023-01-13T06:30:46.658Z,86.27
2023-01-13T06:33:16.147Z,86.17
2023-01-13T06:35:50.054Z,85.83
2023-01-13T06:38:20.210Z,85.90
2023-01-13T06:40:47.219Z,85.59
2023-01-13T06:43:17.394Z,85.59
2023-01-13T06:45:54.375Z,85.57
2023-01-13T06:48:35.544Z,85.54
2023-01-13T06:51:03.624Z,85.62
2023-01-13T06:53:30.346Z,85.47
2023-01-13T06:55:56.787Z,85.56
2023-01-13T06:58:23.473Z,85.54
2023-01-13T07:00:51.485Z,85.66
2023-01-13T07:03:19.864Z,85.79
2023-01-13T07:05:53.437Z,85.86
2023-01-13T07:08:20.490Z,85.96
2023-01-13T07:10:46.867Z,85.65
2023-01-13T07:13:32.182Z,85.91
2023-01-13T07:16:05.087Z,85.80
2023-01-13T07:18:33.092Z,86.02
2023-01-13T07:21:02.349Z,85.79
2023-01-13T07:23:30.680Z,85.34
2023-01-13T07:25:58.756Z,84.84
2023-01-13T07:28:26.625Z,84.99
2023-01-13T07:30:53.332Z,84.77
2023-01-13T07:33:20.436Z,84.51
2023-01-13T07:35:48.063Z,84.05
2023-01-13T07:38:15.426Z,83.53
2023-01-13T07:40:41.905Z,83.24
2023-01-13T07:43:31.069Z,83.39
2023-01-13T07:46:06.449Z,83.81
2023-01-13T07:48:34.621Z,82.93
2023-01-13T07:51:02.629Z,82.25
2023-01-13T07:53:29.111Z,82.24
2023-01-13T07:55:57.108Z,81.91
2023-01-13T07:58:24.838Z,80.91
2023-01-13T08:00:52.210Z,81.47
2023-01-13T08:03:18.839Z,81.88
2023-01-13T08:05:45.730Z,81.49
2023-01-13T08:08:12.634Z,81.74
2023-01-13T08:10:39.204Z,80.99
2023-01-13T08:13:19.955Z,80.54
2023-01-13T08:16:02.476Z,80.85
2023-01-13T08:18:29.789Z,80.76
2023-01-13T08:20:56.224Z,80.80
2023-01-13T08:23:23.482Z,80.13
2023-01-13T08:25:50.199Z,80.45
2023-01-13T08:28:17.544Z,80.40
2023-01-13T08:30:44.299Z,80.20
2023-01-13T08:33:12.973Z,80.02
2023-01-13T08:35:41.483Z,80.29
2023-01-13T08:38:08.255Z,80.71
2023-01-13T08:40:35.106Z,81.06
2023-01-13T08:43:01.715Z,81.70
2023-01-13T08:45:28.310Z,82.25
2023-01-13T08:47:54.759Z,82.72
2023-01-13T08:50:21.199Z,83.58
2023-01-13T08:52:47.686Z,84.10
2023-01-13T08:55:14.075Z,84.77
2023-01-13T08:57:40.644Z,84.79
2023-01-13T09:00:08.057Z,85.43
2023-01-13T09:02:34.529Z,85.86
2023-01-13T09:05:03.644Z,86.88
2023-01-13T09:07:31.087Z,86.38
2023-01-13T09:09:57.555Z,86.79
2023-01-13T09:12:43.019Z,86.82
2023-01-13T09:15:10.482Z,87.32
2023-01-13T09:17:36.933Z,87.40
2023-01-13T09:20:03.931Z,87.43
2023-01-13T09:22:30.464Z,87.57
2023-01-13T09:24:57.055Z,86.71
2023-01-13T09:27:23.925Z,87.19
2023-01-13T09:29:50.524Z,87.68
2023-01-13T09:32:17.219Z,87.84
2023-01-13T09:35:02.244Z,88.05
2023-01-13T09:37:40.427Z,88.05
2023-01-13T09:40:20.192Z,88.33
2023-01-13T09:43:12.354Z,88.21
2023-01-13T09:46:05.418Z,88.13
2023-01-13T09:48:51.913Z,87.82
2023-01-13T09:51:43.401Z,88.03
2023-01-13T09:54:32.172Z,87.86
2023-01-13T09:57:01.470Z,87.60
2023-01-13T09:59:34.663Z,87.04
2023-01-13T10:02:39.650Z,87.11
2023-01-13T10:05:16.334Z,87.17
2023-01-13T10:07:51.342Z,86.62
2023-01-13T10:10:42.451Z,86.85
2023-01-13T10:13:20.781Z,86.85
2023-01-13T10:15:56.387Z,86.87
2023-01-13T10:18:35.278Z,87.27
2023-01-13T10:21:26.335Z,87.28
2023-01-13T10:24:07.429Z,87.36
2023-01-13T10:26:34.286Z,86.88
2023-01-13T10:29:01.001Z,87.20
2023-01-13T10:31:27.476Z,86.90
2023-01-13T10:34:04.187Z,87.17
2023-01-13T10:36:30.623Z,86.27
2023-01-13T10:39:23.412Z,85.16
2023-01-13T10:42:00.128Z,85.73
2023-01-13T10:44:26.926Z,86.27
2023-01-13T10:46:56.517Z,86.16
2023-01-13T10:49:34.221Z,86.01
2023-01-13T10:52:02.643Z,85.90
2023-01-13T10:54:29.872Z,86.32
2023-01-13T10:57:19.710Z,86.26
2023-01-13T10:59:46.701Z,84.98
2023-01-13T11:02:30.082Z,84.56
2023-01-13T11:04:57.876Z,83.79
2023-01-13T11:07:35.912Z,84.28
2023-01-13T11:10:16.528Z,83.63
2023-01-13T11:13:01.978Z,83.34
2023-01-13T11:15:37.048Z,83.58
2023-01-13T11:18:10.525Z,84.02
2023-01-13T11:20:41.464Z,83.28
2023-01-13T11:23:17.685Z,82.57
2023-01-13T11:25:48.780Z,83.54
2023-01-13T11:28:20.891Z,82.81
2023-01-13T11:31:16.776Z,83.07
2023-01-13T11:33:50.953Z,81.49
2023-01-13T11:36:20.726Z,81.72
2023-01-13T11:39:01.376Z,80.37
2023-01-13T11:42:13.581Z,79.48
2023-01-13T11:44:46.413Z,79.77
2023-01-13T11:47:13.948Z,79.37
2023-01-13T11:49:40.955Z,79.26
2023-01-13T11:52:23.612Z,79.05
2023-01-13T11:55:16.407Z,77.61
2023-01-13T11:58:02.082Z,77.72
2023-01-13T12:00:46.752Z,77.42
2023-01-13T12:03:16.191Z,77.95
2023-01-13T12:05:51.121Z,77.26
2023-01-13T12:08:26.089Z,78.12
2023-01-13T12:11:05.847Z,77.47
2023-01-13T12:13:44.216Z,76.70
2023-01-13T12:16:19.390Z,77.72
2023-01-13T12:18:45.788Z,77.05
2023-01-13T12:21:20.607Z,77.46
2023-01-13T12:24:22.822Z,78.02
2023-01-13T12:26:55.708Z,77.51
2023-01-13T12:29:33.161Z,76.52
2023-01-13T12:32:02.068Z,76.85
2023-01-13T12:35:17.014Z,77.53
2023-01-13T12:37:55.124Z,76.60
2023-01-13T12:40:34.101Z,76.65
2023-01-13T12:43:22.274Z,77.45
2023-01-13T12:45:48.705Z,77.21
2023-01-13T12:48:49.004Z,75.44
2023-01-13T12:51:33.189Z,75.79
2023-01-13T12:54:23.426Z,75.78
2023-01-13T12:56:49.941Z,75.47
2023-01-13T12:59:21.828Z,75.62
2023-01-13T13:02:20.716Z,75.31
2023-01-13T13:04:51.666Z,74.11
2023-01-13T13:07:43.327Z,74.24
2023-01-13T13:10:24.448Z,73.43
2023-01-13T13:13:20.425Z,74.58
2023-01-13T13:15:49.475Z,75.58
2023-01-13T13:18:23.841Z,73.46
2023-01-13T13:21:07.417Z,74.62
2023-01-13T13:23:48.042Z,74.44
2023-01-13T13:26:30.909Z,73.80
2023-01-13T13:29:28.553Z,72.70
2023-01-13T13:32:13.521Z,74.02
2023-01-13T13:35:16.612Z,73.41
2023-01-13T13:38:16.820Z,72.11
2023-01-13T13:41:05.790Z,72.26
2023-01-13T13:44:04.060Z,72.54
2023-01-13T13:46:46.817Z,72.97
2023-01-13T13:49:39.858Z,73.45
2023-01-13T13:52:11.185Z,72.87
2023-01-13T13:54:43.219Z,72.76
2023-01-13T13:57:22.605Z,73.32
2023-01-13T13:59:55.062Z,73.26
2023-01-13T14:02:30.459Z,73.08
2023-01-13T14:05:21.751Z,73.41
2023-01-13T14:07:50.753Z,73.57
2023-01-13T14:10:39.769Z,74.17
2023-01-13T14:13:27.600Z,73.74
2023-01-13T14:16:06.306Z,74.01
2023-01-13T14:18:40.643Z,73.98
2023-01-13T14:21:24.155Z,73.52
2023-01-13T14:23:57.760Z,73.31
2023-01-13T14:26:30.918Z,74.53
2023-01-13T14:29:00.372Z,74.64
2023-01-13T14:31:28.107Z,73.97
2023-01-13T14:33:58.287Z,74.31
2023-01-13T14:36:33.823Z,74.52
2023-01-13T14:39:03.293Z,74.09
2023-01-13T14:41:41.891Z,74.12
2023-01-13T14:44:34.241Z,73.98
2023-01-13T14:47:05.160Z,73.98
2023-01-13T14:49:42.457Z,74.29
2023-01-13T14:52:19.168Z,74.06
2023-01-13T14:54:51.512Z,73.62
2023-01-13T14:57:32.169Z,74.36
2023-01-13T15:00:13.411Z,74.47
2023-01-13T15:02:50.234Z,74.47
2023-01-13T15:05:19.698Z,74.28
2023-01-13T15:08:12.350Z,74.44
2023-01-13T15:10:47.152Z,74.11
2023-01-13T15:13:49.708Z,74.06
2023-01-13T15:16:25.109Z,74.40
2023-01-13T15:18:52.879Z,74.26
2023-01-13T15:21:19.586Z,74.34
2023-01-13T15:23:47.334Z,75.35
2023-01-13T15:26:19.790Z,74.86
2023-01-13T15:28:46.836Z,75.16
2023-01-13T15:31:13.759Z,75.50
2023-01-13T15:33:40.364Z,74.81
2023-01-13T15:36:27.706Z,74.13
2023-01-13T15:38:54.581Z,74.28
2023-01-13T15:41:40.989Z,74.58
2023-01-13T15:44:28.400Z,74.75
2023-01-13T15:46:55.315Z,75.30
2023-01-13T15:49:25.367Z,75.06
2023-01-13T15:51:52.046Z,75.36
2023-01-13T15:54:22.711Z,75.92
2023-01-13T15:56:49.244Z,76.61
2023-01-13T15:59:20.842Z,76.26
2023-01-13T16:01:47.404Z,76.78
2023-01-13T16:04:13.922Z,76.46
2023-01-13T16:06:40.897Z,77.03
2023-01-13T16:09:07.608Z,77.09
2023-01-13T16:11:34.109Z,77.57
2023-01-13T16:14:00.518Z,77.48
2023-01-13T16:16:28.583Z,77.47
2023-01-13T16:18:56.209Z,77.42
2023-01-13T16:21:23.192Z,77.00
2023-01-13T16:23:51.216Z,77.41
2023-01-13T16:26:21.741Z,76.47
2023-01-13T16:28:49.745Z,76.83
2023-01-13T16:31:19.321Z,76.99
2023-01-13T16:33:45.818Z,77.09
2023-01-13T16:36:17.505Z,77.40
2023-01-13T16:38:44.327Z,78.28
2023-01-13T16:41:10.799Z,77.80
2023-01-13T16:43:37.541Z,78.49
2023-01-13T16:46:17.523Z,78.91
2023-01-13T16:48:44.363Z,78.96
2023-01-13T16:51:11.982Z,79.47
2023-01-13T16:53:38.520Z,80.18
2023-01-13T16:56:25.566Z,81.33
2023-01-13T16:58:53.582Z,82.57
2023-01-13T17:01:29.011Z,84.51
2023-01-13T17:03:56.194Z,85.54
2023-01-13T17:06:42.972Z,85.97
2023-01-13T17:09:21.113Z,86.14
2023-01-13T17:11:47.733Z,86.62
2023-01-13T17:14:18.544Z,87.03
2023-01-13T17:16:46.489Z,87.02
2023-01-13T17:19:13.491Z,87.66
2023-01-13T17:21:40.037Z,87.55
2023-01-13T17:24:07.866Z,87.48
2023-01-13T17:26:43.981Z,87.75
2023-01-13T17:29:14.090Z,87.81
2023-01-13T17:31:40.932Z,88.15
2023-01-13T17:34:08.191Z,88.52
2023-01-13T17:36:34.571Z,87.91
2023-01-13T17:39:01.080Z,87.88
2023-01-13T17:41:27.694Z,88.08
2023-01-13T17:43:54.201Z,87.98
2023-01-13T17:46:23.045Z,88.03
2023-01-13T17:48:51.064Z,88.28
2023-01-13T17:51:18.645Z,88.30
2023-01-13T17:53:45.536Z,87.74
2023-01-13T17:56:14.550Z,88.18
2023-01-13T17:58:45.501Z,88.33
2023-01-13T18:01:18.670Z,88.29
2023-01-13T18:03:45.910Z,88.65
2023-01-13T18:06:21.849Z,88.80
2023-01-13T18:08:48.617Z,88.96
2023-01-13T18:11:19.988Z,89.40
2023-01-13T18:13:47.967Z,89.55
2023-01-13T18:16:17.567Z,89.67
2023-01-13T18:18:46.567Z,89.76
2023-01-13T18:21:40.638Z,89.79
2023-01-13T18:24:30.593Z,90.00
2023-01-13T18:27:15.902Z,90.22
2023-01-13T18:29:42.712Z,90.40
2023-01-13T18:32:09.287Z,90.70
2023-01-13T18:34:36.446Z,90.80
2023-01-13T18:37:03.023Z,91.06
2023-01-13T18:39:29.514Z,90.95
2023-01-13T18:42:14.607Z,90.79
2023-01-13T18:44:41.169Z,90.68
2023-01-13T18:47:07.651Z,90.66
2023-01-13T18:49:34.036Z,90.45
2023-01-13T18:52:00.735Z,89.65
2023-01-13T18:54:27.187Z,89.27
2023-01-13T18:56:53.592Z,89.25
2023-01-13T18:59:20.193Z,88.76
2023-01-13T19:01:46.726Z,88.59
2023-01-13T19:04:15.547Z,88.53
2023-01-13T19:06:53.634Z,88.69
2023-01-13T19:09:28.756Z,88.50
2023-01-13T19:11:56.887Z,88.61
2023-01-13T19:14:40.368Z,88.42
2023-01-13T19:17:09.740Z,88.57
2023-01-13T19:19:40.700Z,88.88
2023-01-13T19:22:07.514Z,88.93
2023-01-13T19:24:34.309Z,88.79
2023-01-13T19:27:00.844Z,88.87
2023-01-13T19:29:27.363Z,88.81
2023-01-13T19:31:53.803Z,88.52
2023-01-13T19:34:20.330Z,88.71
2023-01-13T19:36:46.765Z,88.72
2023-01-13T19:39:14.024Z,88.46
2023-01-13T19:41:59.024Z,88.12
2023-01-13T19:44:43.827Z,88.30
2023-01-13T19:47:10.252Z,88.34
2023-01-13T19:49:36.650Z,87.81
2023-01-13T19:52:03.186Z,87.66
2023-01-13T19:54:29.756Z,87.85
2023-01-13T19:56:56.189Z,88.23
2023-01-13T19:59:29.236Z,88.11
2023-01-13T20:02:03.772Z,88.00
2023-01-13T20:04:38.314Z,87.85
2023-01-13T20:07:06.457Z,87.17
2023-01-13T20:09:34.362Z,87.38
2023-01-13T20:12:09.038Z,87.30
2023-01-13T20:14:35.573Z,87.12
2023-01-13T20:17:02.072Z,87.08
2023-01-13T20:19:28.452Z,87.29
2023-01-13T20:21:54.848Z,86.98
2023-01-13T20:24:21.385Z,86.82
2023-01-13T20:26:47.783Z,86.75
2023-01-13T20:29:14.189Z,86.67
2023-01-13T20:31:40.656Z,86.30
2023-01-13T20:34:07.255Z,85.63
2023-01-13T20:36:37.392Z,85.59
2023-01-13T20:39:06.194Z,85.46
2023-01-13T20:41:51.187Z,85.77
2023-01-13T20:44:17.878Z,85.42
2023-01-13T20:46:44.631Z,84.93
2023-01-13T20:49:12.386Z,84.84
2023-01-13T20:51:38.784Z,84.66
2023-01-13T20:54:05.352Z,85.10
2023-01-13T20:56:31.923Z,84.93
2023-01-13T20:58:58.524Z,85.04
2023-01-13T21:01:25.360Z,85.13
2023-01-13T21:03:55.344Z,85.64
2023-01-13T21:06:21.821Z,85.55
2023-01-13T21:08:48.491Z,85.49
2023-01-13T21:11:17.883Z,85.39
2023-01-13T21:14:03.089Z,85.39
2023-01-13T21:16:29.540Z,85.11
2023-01-13T21:19:07.986Z,85.17
2023-01-13T21:21:34.471Z,85.47
2023-01-13T21:24:00.943Z,85.38
2023-01-13T21:26:27.488Z,85.37
2023-01-13T21:28:58.051Z,85.40
2023-01-13T21:31:26.935Z,85.44
2023-01-13T21:33:54.833Z,85.63
2023-01-13T21:36:21.631Z,85.57
2023-01-13T21:38:55.885Z,84.98
2023-01-13T21:41:45.461Z,84.96
2023-01-13T21:44:35.349Z,85.09
2023-01-13T21:47:20.353Z,85.30
2023-01-13T21:49:46.986Z,85.49
2023-01-13T21:52:14.929Z,85.57
2023-01-13T21:55:00.283Z,85.61
2023-01-13T21:57:27.735Z,85.71
2023-01-13T21:59:54.318Z,85.19
2023-01-13T22:02:35.363Z,84.89
2023-01-13T22:05:03.980Z,84.92
2023-01-13T22:07:32.527Z,84.87
2023-01-13T22:09:59.483Z,84.84
2023-01-13T22:12:26.714Z,84.79
2023-01-13T22:14:54.411Z,84.47
2023-01-13T22:17:23.740Z,84.48
2023-01-13T22:19:52.814Z,84.09
2023-01-13T22:22:20.456Z,83.58
2023-01-13T22:24:49.271Z,83.48
2023-01-13T22:27:21.295Z,83.45
2023-01-13T22:29:49.511Z,83.31
2023-01-13T22:32:16.986Z,83.53
2023-01-13T22:34:43.855Z,83.24
2023-01-13T22:37:10.556Z,83.29
2023-01-13T22:39:37.039Z,83.27
2023-01-13T22:42:04.274Z,83.15
2023-01-13T22:44:30.761Z,82.82
2023-01-13T22:46:57.173Z,82.93
2023-01-13T22:49:23.689Z,82.90
2023-01-13T22:51:50.183Z,83.05
2023-01-13T22:54:18.556Z,82.95
2023-01-13T22:56:45.011Z,82.60
2023-01-13T22:59:13.413Z,82.98
2023-01-13T23:01:42.180Z,82.94
2023-01-13T23:04:15.108Z,83.35
2023-01-13T23:06:41.714Z,83.16
2023-01-13T23:09:08.146Z,82.46
2023-01-13T23:11:35.243Z,82.22
2023-01-13T23:14:04.674Z,82.09
2023-01-13T23:16:33.726Z,82.33
2023-01-13T23:19:00.197Z,82.21
2023-01-13T23:21:29.439Z,81.83
2023-01-13T23:23:58.654Z,82.18
2023-01-13T23:26:26.557Z,81.93
2023-01-13T23:28:53.137Z,82.35
2023-01-13T23:31:22.005Z,82.16
2023-01-13T23:33:49.110Z,82.29
2023-01-13T23:36:19.517Z,81.61
2023-01-13T23:38:46.315Z,81.76
2023-01-13T23:41:15.727Z,81.59
2023-01-13T23:43:42.720Z,82.03
2023-01-13T23:46:12.414Z,81.86
2023-01-13T23:48:39.409Z,81.80
2023-01-13T23:51:09.103Z,81.35
2023-01-13T23:53:40.206Z,81.68
2023-01-13T23:56:10.162Z,81.95
2023-01-13T23:58:36.615Z,81.92
